createdAt,value
2023-04-15T00:00:26.281Z,0.00
2023-04-15T00:01:26.457Z,0.00
2023-04-15T00:02:26.437Z,0.00
2023-04-15T00:03:26.492Z,0.00
2023-04-15T00:04:26.528Z,0.00
2023-04-15T00:05:25.376Z,0.00
2023-04-15T00:06:25.351Z,0.00
2023-04-15T00:07:26.350Z,0.00
2023-04-15T00:08:25.387Z,0.00
2023-04-15T00:09:25.329Z,0.00
2023-04-15T00:10:26.064Z,0.00
2023-04-15T00:11:26.246Z,0.00
2023-04-15T00:12:26.131Z,0.00
2023-04-15T00:13:26.031Z,0.00
2023-04-15T00:14:25.241Z,0.00
2023-04-15T00:15:25.322Z,0.00
2023-04-15T00:16:25.362Z,0.00
2023-04-15T00:17:25.268Z,0.00
2023-04-15T00:18:25.221Z,0.00
2023-04-15T00:19:25.183Z,0.00
2023-04-15T00:20:26.178Z,0.00
2023-04-15T00:21:26.035Z,0.00
2023-04-15T00:22:25.140Z,0.00
2023-04-15T00:23:25.127Z,0.00
2023-04-15T00:24:26.061Z,0.00
2023-04-15T00:25:25.910Z,0.00
2023-04-15T00:26:25.086Z,0.00
2023-04-15T00:27:25.976Z,0.00
2023-04-15T00:28:25.273Z,0.00
2023-04-15T00:29:26.032Z,0.00
2023-04-15T00:30:25.216Z,0.00
2023-04-15T00:31:26.027Z,0.00
2023-04-15T00:32:25.776Z,0.00
2023-04-15T00:33:25.228Z,0.00
2023-04-15T00:34:25.200Z,0.00
2023-04-15T00:35:24.948Z,0.00
2023-04-15T00:36:24.925Z,0.00
2023-04-15T00:37:25.200Z,0.00
2023-04-15T00:38:25.264Z,0.00
2023-04-15T00:39:25.223Z,0.00
2023-04-15T00:40:25.233Z,0.00
2023-04-15T00:41:25.272Z,0.00
2023-04-15T00:42:25.270Z,0.00
2023-04-15T00:43:25.202Z,0.00
2023-04-15T00:44:25.381Z,0.00
2023-04-15T00:45:25.273Z,0.00
2023-04-15T00:46:24.910Z,0.00
2023-04-15T00:47:25.554Z,0.00
2023-04-15T00:48:25.751Z,0.00
2023-04-15T00:49:25.230Z,0.00
2023-04-15T00:50:24.792Z,0.00
2023-04-15T00:51:24.738Z,0.00
2023-04-15T00:52:24.851Z,0.00
2023-04-15T00:53:24.894Z,0.00
2023-04-15T00:54:25.118Z,0.00
2023-04-15T00:55:25.188Z,0.00
2023-04-15T00:56:24.720Z,0.00
2023-04-15T00:57:24.654Z,0.00
2023-04-15T00:58:24.621Z,0.00
2023-04-15T00:59:24.661Z,0.00
2023-04-15T01:00:24.778Z,0.00
2023-04-15T01:01:24.604Z,0.00
2023-04-15T01:02:24.719Z,0.00
2023-04-15T01:03:25.449Z,0.00
2023-04-15T01:04:24.674Z,0.00
2023-04-15T01:05:25.410Z,0.00
2023-04-15T01:06:25.318Z,0.00
2023-04-15T01:07:25.508Z,0.00
2023-04-15T01:08:25.371Z,0.00
2023-04-15T01:09:25.359Z,0.00
2023-04-15T01:10:25.466Z,0.00
2023-04-15T01:11:24.461Z,0.00
2023-04-15T01:12:24.574Z,0.00
2023-04-15T01:13:25.402Z,0.00
2023-04-15T01:14:25.322Z,0.00
2023-04-15T01:15:24.570Z,0.00
2023-04-15T01:16:24.689Z,0.00
2023-04-15T01:17:24.419Z,0.00
2023-04-15T01:18:25.201Z,0.00
2023-04-15T01:19:25.368Z,0.00
2023-04-15T01:20:24.330Z,0.00
2023-04-15T01:21:25.140Z,0.00
2023-04-15T01:22:25.055Z,0.00
2023-04-15T01:23:25.207Z,0.00
2023-04-15T01:24:25.105Z,0.00
2023-04-15T01:25:25.276Z,0.00
2023-04-15T01:26:24.288Z,0.00
2023-04-15T01:27:25.076Z,0.00
2023-04-15T01:28:24.201Z,0.00
2023-04-15T01:29:24.210Z,0.00
2023-04-15T01:30:24.257Z,0.00
2023-04-15T01:31:25.003Z,0.00
2023-04-15T01:32:25.126Z,0.00
2023-04-15T01:33:25.068Z,0.00
2023-04-15T01:34:24.174Z,0.00
2023-04-15T01:35:24.187Z,0.00
2023-04-15T01:36:25.017Z,0.00
2023-04-15T01:37:24.135Z,0.00
2023-04-15T01:38:25.056Z,0.00
2023-04-15T01:39:24.451Z,0.00
2023-04-15T01:40:25.038Z,0.00
2023-04-15T01:41:24.172Z,0.00
2023-04-15T01:42:25.014Z,0.00
2023-04-15T01:43:24.001Z,0.00
2023-04-15T01:44:24.702Z,0.00
2023-04-15T01:45:24.301Z,0.00
2023-04-15T01:46:24.707Z,0.00
2023-04-15T01:47:24.677Z,0.00
2023-04-15T01:48:23.983Z,0.00
2023-04-15T01:49:23.932Z,0.00
2023-04-15T01:50:24.890Z,0.00
2023-04-15T01:51:24.861Z,0.00
2023-04-15T01:52:24.724Z,0.00
2023-04-15T01:53:24.084Z,0.00
2023-04-15T01:54:23.870Z,0.00
2023-04-15T01:55:24.696Z,0.00
2023-04-15T01:56:24.601Z,0.00
2023-04-15T01:57:23.804Z,0.00
2023-04-15T01:58:24.433Z,0.00
2023-04-15T01:59:24.527Z,0.00
2023-04-15T02:00:24.650Z,0.00
2023-04-15T02:01:24.594Z,0.00
2023-04-15T02:02:24.026Z,0.00
2023-04-15T02:03:23.825Z,0.00
2023-04-15T02:04:25.660Z,0.00
2023-04-15T02:05:24.548Z,0.00
2023-04-15T02:06:26.255Z,0.00
2023-04-15T02:07:24.600Z,0.00
2023-04-15T02:08:24.519Z,0.00
2023-04-15T02:09:23.664Z,0.00
2023-04-15T02:10:23.720Z,0.00
2023-04-15T02:11:23.622Z,0.00
2023-04-15T02:12:24.693Z,0.00
2023-04-15T02:13:24.542Z,0.00
2023-04-15T02:14:23.648Z,0.00
2023-04-15T02:15:24.649Z,0.00
2023-04-15T02:16:24.630Z,0.00
2023-04-15T02:17:24.426Z,0.00
2023-04-15T02:18:24.316Z,0.00
2023-04-15T02:19:23.527Z,0.00
2023-04-15T02:20:23.645Z,0.00
2023-04-15T02:21:23.473Z,0.00
2023-04-15T02:22:23.465Z,0.00
2023-04-15T02:23:23.548Z,0.00
2023-04-15T02:24:23.454Z,0.00
2023-04-15T02:25:23.433Z,0.00
2023-04-15T02:26:23.565Z,0.00
2023-04-15T02:27:23.381Z,0.00
2023-04-15T02:28:24.344Z,0.00
2023-04-15T02:29:24.247Z,0.00
2023-04-15T02:30:23.372Z,0.00
2023-04-15T02:31:24.360Z,0.00
2023-04-15T02:32:23.389Z,0.00
2023-04-15T02:33:24.130Z,0.00
2023-04-15T02:34:23.332Z,0.00
2023-04-15T02:35:23.335Z,0.00
2023-04-15T02:36:23.293Z,0.00
2023-04-15T02:37:23.310Z,0.00
2023-04-15T02:38:23.234Z,0.00
2023-04-15T02:39:24.057Z,0.00
2023-04-15T02:40:24.010Z,0.00
2023-04-15T02:41:24.124Z,0.00
2023-04-15T02:42:23.275Z,0.00
2023-04-15T02:43:23.244Z,0.00
2023-04-15T02:44:23.357Z,0.00
2023-04-15T02:45:23.186Z,0.00
2023-04-15T02:46:23.324Z,0.00
2023-04-15T02:47:24.110Z,0.00
2023-04-15T02:48:23.100Z,0.00
2023-04-15T02:49:23.097Z,0.00
2023-04-15T02:50:24.029Z,0.00
2023-04-15T02:51:23.926Z,0.00
2023-04-15T02:52:23.862Z,0.00
2023-04-15T02:53:24.002Z,0.00
2023-04-15T02:54:23.907Z,0.00
2023-04-15T02:55:23.001Z,0.00
2023-04-15T02:56:23.129Z,0.00
2023-04-15T02:57:23.914Z,0.00
2023-04-15T02:58:23.008Z,0.00
2023-04-15T02:59:23.927Z,0.00
2023-04-15T03:00:23.862Z,0.00
2023-04-15T03:01:23.767Z,0.00
2023-04-15T03:02:23.974Z,0.00
2023-04-15T03:03:23.907Z,0.00
2023-04-15T03:04:22.936Z,0.00
2023-04-15T03:05:23.345Z,0.00
2023-04-15T03:06:23.830Z,0.00
2023-04-15T03:07:22.904Z,0.00
2023-04-15T03:08:23.836Z,0.00
2023-04-15T03:09:23.772Z,0.00
2023-04-15T03:10:23.641Z,0.00
2023-04-15T03:11:23.261Z,0.00
2023-04-15T03:12:22.756Z,0.00
2023-04-15T03:13:23.292Z,0.00
2023-04-15T03:14:23.298Z,0.00
2023-04-15T03:15:23.682Z,0.00
2023-04-15T03:16:23.581Z,0.00
2023-04-15T03:17:22.751Z,0.00
2023-04-15T03:18:23.642Z,0.00
2023-04-15T03:19:23.548Z,0.00
2023-04-15T03:20:23.525Z,0.00
2023-04-15T03:21:23.628Z,0.00
2023-04-15T03:22:23.521Z,0.00
2023-04-15T03:23:22.645Z,0.00
2023-04-15T03:24:23.055Z,0.00
2023-04-15T03:25:23.517Z,0.00
2023-04-15T03:26:23.383Z,0.00
2023-04-15T03:27:22.583Z,0.00
2023-04-15T03:28:22.539Z,0.00
2023-04-15T03:29:22.573Z,0.00
2023-04-15T03:30:23.254Z,0.00
2023-04-15T03:31:22.563Z,0.00
2023-04-15T03:32:23.357Z,0.00
2023-04-15T03:33:23.389Z,0.00
2023-04-15T03:34:23.387Z,0.00
2023-04-15T03:35:23.350Z,0.00
2023-04-15T03:36:23.204Z,0.00
2023-04-15T03:37:23.331Z,0.00
2023-04-15T03:38:23.286Z,0.00
2023-04-15T03:39:22.654Z,0.00
2023-04-15T03:40:22.416Z,0.00
2023-04-15T03:41:22.413Z,0.00
2023-04-15T03:42:22.450Z,0.00
2023-04-15T03:43:22.431Z,0.00
2023-04-15T03:44:22.354Z,0.00
2023-04-15T03:45:22.353Z,0.00
2023-04-15T03:46:22.331Z,0.00
2023-04-15T03:47:22.475Z,0.00
2023-04-15T03:48:23.120Z,0.00
2023-04-15T03:49:23.252Z,0.00
2023-04-15T03:50:22.531Z,0.00
2023-04-15T03:51:22.315Z,0.00
2023-04-15T03:52:23.262Z,0.00
2023-04-15T03:53:22.184Z,0.00
2023-04-15T03:54:22.447Z,0.00
2023-04-15T03:55:22.179Z,0.00
2023-04-15T03:56:22.231Z,0.00
2023-04-15T03:57:22.169Z,0.00
2023-04-15T03:58:22.142Z,0.00
2023-04-15T03:59:22.112Z,0.00
2023-04-15T04:00:22.140Z,0.00
2023-04-15T04:01:22.332Z,0.00
2023-04-15T04:02:22.205Z,0.00
2023-04-15T04:03:22.688Z,0.00
2023-04-15T04:04:22.899Z,0.00
2023-04-15T04:05:22.027Z,0.00
2023-04-15T04:06:22.112Z,0.00
2023-04-15T04:07:22.220Z,0.00
2023-04-15T04:08:22.118Z,0.00
2023-04-15T04:09:22.388Z,0.00
2023-04-15T04:10:21.992Z,0.00
2023-04-15T04:11:21.990Z,0.00
2023-04-15T04:12:22.094Z,0.00
2023-04-15T04:13:22.364Z,0.00
2023-04-15T04:14:22.339Z,0.00
2023-04-15T04:15:22.464Z,0.00
2023-04-15T04:16:21.992Z,0.00
2023-04-15T04:17:21.978Z,0.00
2023-04-15T04:18:22.044Z,0.00
2023-04-15T04:19:21.910Z,0.00
2023-04-15T04:20:21.888Z,0.00
2023-04-15T04:21:22.118Z,0.00
2023-04-15T04:22:21.897Z,0.00
2023-04-15T04:23:21.802Z,0.00
2023-04-15T04:24:21.860Z,0.00
2023-04-15T04:25:21.870Z,0.00
2023-04-15T04:26:21.862Z,5.62
2023-04-15T04:27:21.713Z,5.62
2023-04-15T04:28:21.763Z,5.62
2023-04-15T04:29:21.776Z,5.62
2023-04-15T04:30:21.684Z,5.62
2023-04-15T04:31:21.721Z,5.62
2023-04-15T04:32:21.678Z,5.62
2023-04-15T04:33:21.702Z,5.62
2023-04-15T04:34:21.625Z,5.62
2023-04-15T04:35:22.398Z,5.62
2023-04-15T04:36:21.616Z,5.62
2023-04-15T04:37:21.745Z,5.62
2023-04-15T04:38:21.769Z,5.62
2023-04-15T04:39:21.712Z,11.25
2023-04-15T04:40:21.519Z,11.25
2023-04-15T04:41:21.751Z,11.25
2023-04-15T04:42:21.566Z,11.25
2023-04-15T04:43:21.690Z,11.25
2023-04-15T04:44:21.771Z,11.25
2023-04-15T04:45:21.745Z,11.25
2023-04-15T04:46:21.521Z,11.25
2023-04-15T04:47:21.514Z,11.25
2023-04-15T04:48:22.423Z,11.25
2023-04-15T04:49:22.343Z,11.25
2023-04-15T04:50:21.465Z,16.88
2023-04-15T04:51:22.459Z,16.88
2023-04-15T04:52:22.309Z,16.88
2023-04-15T04:53:22.241Z,22.50
2023-04-15T04:54:22.125Z,22.50
2023-04-15T04:55:22.355Z,22.50
2023-04-15T04:56:21.431Z,22.50
2023-04-15T04:57:21.804Z,16.88
2023-04-15T04:58:21.410Z,22.50
2023-04-15T04:59:22.210Z,22.50
2023-04-15T05:00:22.049Z,22.50
2023-04-15T05:01:22.335Z,22.50
2023-04-15T05:02:22.218Z,22.50
2023-04-15T05:03:21.414Z,22.50
2023-04-15T05:04:21.249Z,22.50
2023-04-15T05:05:21.272Z,22.50
2023-04-15T05:06:21.245Z,22.50
2023-04-15T05:07:21.206Z,28.12
2023-04-15T05:08:21.183Z,28.12
2023-04-15T05:09:21.214Z,33.75
2023-04-15T05:10:21.122Z,33.75
2023-04-15T05:11:22.024Z,33.75
2023-04-15T05:12:21.143Z,33.75
2023-04-15T05:13:21.258Z,33.75
2023-04-15T05:14:23.331Z,33.75
2023-04-15T05:15:21.080Z,33.75
2023-04-15T05:16:22.090Z,33.75
2023-04-15T05:17:21.103Z,33.75
2023-04-15T05:18:21.875Z,33.75
2023-04-15T05:19:21.003Z,39.38
2023-04-15T05:20:29.979Z,39.38
2023-04-15T05:21:21.824Z,39.38
2023-04-15T05:22:20.973Z,45.00
2023-04-15T05:23:21.082Z,45.00
2023-04-15T05:24:21.471Z,50.62
2023-04-15T05:25:20.983Z,50.62
2023-04-15T05:26:23.620Z,56.25
2023-04-15T05:27:21.149Z,50.62
2023-04-15T05:28:22.363Z,56.25
2023-04-15T05:29:20.859Z,56.25
2023-04-15T05:30:21.064Z,56.25
2023-04-15T05:31:21.549Z,56.25
2023-04-15T05:32:21.697Z,56.25
2023-04-15T05:33:22.214Z,56.25
2023-04-15T05:34:21.056Z,56.25
2023-04-15T05:35:20.776Z,50.62
2023-04-15T05:36:20.895Z,50.62
2023-04-15T05:37:21.226Z,56.25
2023-04-15T05:38:21.156Z,56.25
2023-04-15T05:39:21.282Z,56.25
2023-04-15T05:40:20.808Z,56.25
2023-04-15T05:41:20.721Z,56.25
2023-04-15T05:42:21.154Z,50.62
2023-04-15T05:43:21.055Z,56.25
2023-04-15T05:44:21.744Z,56.25
2023-04-15T05:45:20.825Z,56.25
2023-04-15T05:46:21.595Z,50.62
2023-04-15T05:47:20.841Z,61.88
2023-04-15T05:48:48.974Z,67.50
2023-04-15T05:49:21.192Z,67.50
2023-04-15T05:50:20.684Z,67.50
2023-04-15T05:51:20.664Z,61.88
2023-04-15T05:52:21.550Z,73.12
2023-04-15T05:53:21.061Z,78.75
2023-04-15T05:54:22.858Z,78.75
2023-04-15T05:55:21.351Z,84.38
2023-04-15T05:56:20.731Z,90.00
2023-04-15T05:57:20.732Z,95.62
2023-04-15T05:58:20.570Z,101.25
2023-04-15T05:59:20.666Z,90.00
2023-04-15T06:00:21.047Z,106.88
2023-04-15T06:01:21.508Z,106.88
2023-04-15T06:02:20.700Z,101.25
2023-04-15T06:03:21.560Z,123.75
2023-04-15T06:04:20.513Z,118.12
2023-04-15T06:05:20.606Z,118.12
2023-04-15T06:06:20.989Z,146.25
2023-04-15T06:07:20.435Z,129.38
2023-04-15T06:08:20.725Z,135.00
2023-04-15T06:09:21.087Z,135.00
2023-04-15T06:10:20.452Z,129.38
2023-04-15T06:11:20.396Z,129.38
2023-04-15T06:12:20.586Z,129.38
2023-04-15T06:13:20.696Z,129.38
2023-04-15T06:14:21.152Z,129.38
2023-04-15T06:15:21.728Z,135.00
2023-04-15T06:16:20.371Z,123.75
2023-04-15T06:17:20.690Z,129.38
2023-04-15T06:18:20.294Z,123.75
2023-04-15T06:19:20.437Z,112.50
2023-04-15T06:20:20.388Z,118.12
2023-04-15T06:21:21.929Z,118.12
2023-04-15T06:22:21.102Z,135.00
2023-04-15T06:23:20.992Z,135.00
2023-04-15T06:24:20.138Z,151.88
2023-04-15T06:25:21.123Z,157.50
2023-04-15T06:26:20.966Z,157.50
2023-04-15T06:27:20.096Z,163.12
2023-04-15T06:28:21.030Z,185.62
2023-04-15T06:29:20.045Z,191.25
2023-04-15T06:30:20.612Z,191.25
2023-04-15T06:31:21.011Z,213.75
2023-04-15T06:32:20.887Z,236.25
2023-04-15T06:33:19.993Z,191.25
2023-04-15T06:34:21.028Z,191.25
2023-04-15T06:35:19.983Z,213.75
2023-04-15T06:36:19.940Z,202.50
2023-04-15T06:37:19.908Z,174.38
2023-04-15T06:38:19.915Z,174.38
2023-04-15T06:39:20.754Z,213.75
2023-04-15T06:40:20.882Z,213.75
2023-04-15T06:41:19.916Z,146.25
2023-04-15T06:42:19.922Z,146.25
2023-04-15T06:43:20.328Z,151.88
2023-04-15T06:44:20.754Z,185.62
2023-04-15T06:45:20.661Z,163.12
2023-04-15T06:46:20.514Z,140.62
2023-04-15T06:47:20.743Z,151.88
2023-04-15T06:48:19.781Z,135.00
2023-04-15T06:49:19.784Z,140.62
2023-04-15T06:50:20.275Z,151.88
2023-04-15T06:51:19.851Z,157.50
2023-04-15T06:52:20.038Z,157.50
2023-04-15T06:53:20.123Z,185.62
2023-04-15T06:54:20.565Z,196.88
2023-04-15T06:55:19.725Z,202.50
2023-04-15T06:56:19.710Z,213.75
2023-04-15T06:57:20.529Z,230.62
2023-04-15T06:58:19.725Z,236.25
2023-04-15T06:59:20.334Z,230.62
2023-04-15T07:00:20.274Z,208.12
2023-04-15T07:01:20.327Z,230.62
2023-04-15T07:02:19.664Z,202.50
2023-04-15T07:03:19.700Z,191.25
2023-04-15T07:04:19.966Z,185.62
2023-04-15T07:05:19.531Z,196.88
2023-04-15T07:06:20.466Z,180.00
2023-04-15T07:07:19.508Z,163.12
2023-04-15T07:08:19.521Z,168.75
2023-04-15T07:09:19.510Z,168.75
2023-04-15T07:10:20.274Z,180.00
2023-04-15T07:11:19.464Z,180.00
2023-04-15T07:12:20.367Z,180.00
2023-04-15T07:13:19.461Z,208.12
2023-04-15T07:14:19.460Z,208.12
2023-04-15T07:15:19.524Z,196.88
2023-04-15T07:16:19.491Z,202.50
2023-04-15T07:17:19.438Z,208.12
2023-04-15T07:18:20.311Z,213.75
2023-04-15T07:19:19.383Z,219.38
2023-04-15T07:20:19.433Z,225.00
2023-04-15T07:21:19.351Z,213.75
2023-04-15T07:22:19.392Z,202.50
2023-04-15T07:23:19.687Z,208.12
2023-04-15T07:24:19.556Z,196.88
2023-04-15T07:25:19.301Z,225.00
2023-04-15T07:26:19.324Z,213.75
2023-04-15T07:27:19.831Z,213.75
2023-04-15T07:28:19.268Z,213.75
2023-04-15T07:29:19.272Z,219.38
2023-04-15T07:30:19.600Z,241.88
2023-04-15T07:31:20.116Z,236.25
2023-04-15T07:32:19.700Z,196.88
2023-04-15T07:33:19.341Z,174.38
2023-04-15T07:34:19.497Z,174.38
2023-04-15T07:35:19.421Z,185.62
2023-04-15T07:36:20.031Z,196.88
2023-04-15T07:37:19.134Z,191.25
2023-04-15T07:38:19.116Z,196.88
2023-04-15T07:39:19.829Z,219.38
2023-04-15T07:40:19.064Z,225.00
2023-04-15T07:41:19.065Z,236.25
2023-04-15T07:42:19.878Z,258.75
2023-04-15T07:43:19.048Z,320.62
2023-04-15T07:44:19.050Z,360.00
2023-04-15T07:45:19.016Z,382.50
2023-04-15T07:46:19.068Z,360.00
2023-04-15T07:47:19.034Z,348.75
2023-04-15T07:48:19.023Z,360.00
2023-04-15T07:49:19.132Z,382.50
2023-04-15T07:50:18.931Z,410.62
2023-04-15T07:51:19.098Z,399.38
2023-04-15T07:52:18.936Z,427.50
2023-04-15T07:53:18.914Z,528.75
2023-04-15T07:54:18.863Z,585.00
2023-04-15T07:55:19.478Z,540.00
2023-04-15T07:56:18.873Z,545.62
2023-04-15T07:57:18.844Z,500.62
2023-04-15T07:58:18.866Z,472.50
2023-04-15T07:59:18.879Z,489.38
2023-04-15T08:00:18.878Z,450.00
2023-04-15T08:01:18.811Z,427.50
2023-04-15T08:02:18.897Z,376.88
2023-04-15T08:03:18.919Z,365.62
2023-04-15T08:04:19.007Z,371.25
2023-04-15T08:05:19.228Z,399.38
2023-04-15T08:06:18.891Z,376.88
2023-04-15T08:07:18.777Z,365.62
2023-04-15T08:08:18.715Z,348.75
2023-04-15T08:09:18.699Z,365.62
2023-04-15T08:10:18.649Z,382.50
2023-04-15T08:11:18.717Z,371.25
2023-04-15T08:12:18.625Z,433.12
2023-04-15T08:13:18.612Z,427.50
2023-04-15T08:14:18.755Z,444.38
2023-04-15T08:15:18.881Z,331.88
2023-04-15T08:16:18.707Z,320.62
2023-04-15T08:17:18.843Z,365.62
2023-04-15T08:18:18.650Z,399.38
2023-04-15T08:19:19.179Z,410.62
2023-04-15T08:20:18.506Z,416.25
2023-04-15T08:21:18.858Z,343.12
2023-04-15T08:22:19.614Z,331.88
2023-04-15T08:23:18.941Z,371.25
2023-04-15T08:24:19.345Z,433.12
2023-04-15T08:25:18.588Z,483.75
2023-04-15T08:26:18.850Z,489.38
2023-04-15T08:27:18.468Z,416.25
2023-04-15T08:28:18.491Z,388.12
2023-04-15T08:29:19.184Z,354.38
2023-04-15T08:30:19.327Z,354.38
2023-04-15T08:31:19.222Z,365.62
2023-04-15T08:32:19.147Z,371.25
2023-04-15T08:33:18.321Z,371.25
2023-04-15T08:34:18.356Z,376.88
2023-04-15T08:35:19.060Z,416.25
2023-04-15T08:36:18.258Z,472.50
2023-04-15T08:37:18.530Z,534.38
2023-04-15T08:38:18.334Z,500.62
2023-04-15T08:39:18.280Z,427.50
2023-04-15T08:40:19.121Z,421.88
2023-04-15T08:41:18.551Z,427.50
2023-04-15T08:42:18.199Z,416.25
2023-04-15T08:43:18.884Z,421.88
2023-04-15T08:44:18.508Z,450.00
2023-04-15T08:45:19.135Z,489.38
2023-04-15T08:46:18.221Z,517.50
2023-04-15T08:47:18.174Z,523.12
2023-04-15T08:48:19.095Z,551.25
2023-04-15T08:49:18.518Z,511.88
2023-04-15T08:50:18.164Z,478.12
2023-04-15T08:51:18.183Z,433.12
2023-04-15T08:52:18.173Z,455.62
2023-04-15T08:53:18.871Z,556.88
2023-04-15T08:54:18.069Z,562.50
2023-04-15T08:55:18.949Z,506.25
2023-04-15T08:56:18.892Z,551.25
2023-04-15T08:57:18.219Z,579.38
2023-04-15T08:58:17.992Z,675.00
2023-04-15T08:59:18.295Z,652.50
2023-04-15T09:00:18.739Z,736.88
2023-04-15T09:01:18.924Z,624.38
2023-04-15T09:02:18.993Z,646.88
2023-04-15T09:03:18.138Z,725.62
2023-04-15T09:04:18.896Z,759.38
2023-04-15T09:05:17.989Z,748.12
2023-04-15T09:06:17.950Z,894.38
2023-04-15T09:07:17.883Z,691.88
2023-04-15T09:08:17.908Z,725.62
2023-04-15T09:09:17.879Z,675.00
2023-04-15T09:10:18.247Z,596.25
2023-04-15T09:11:19.432Z,613.12
2023-04-15T09:12:18.594Z,669.38
2023-04-15T09:13:18.037Z,658.12
2023-04-15T09:14:18.687Z,646.88
2023-04-15T09:15:17.896Z,675.00
2023-04-15T09:16:17.977Z,675.00
2023-04-15T09:17:17.759Z,675.00
2023-04-15T09:18:17.941Z,596.25
2023-04-15T09:19:17.714Z,517.50
2023-04-15T09:20:17.870Z,545.62
2023-04-15T09:21:18.534Z,545.62
2023-04-15T09:22:17.937Z,579.38
2023-04-15T09:23:17.620Z,663.75
2023-04-15T09:24:17.890Z,703.12
2023-04-15T09:25:17.932Z,798.75
2023-04-15T09:26:17.680Z,1074.38
2023-04-15T09:27:18.270Z,1293.75
2023-04-15T09:28:17.661Z,1366.88
2023-04-15T09:29:17.611Z,1395.00
2023-04-15T09:30:17.806Z,1220.62
2023-04-15T09:31:17.569Z,1254.38
2023-04-15T09:32:17.576Z,1485.00
2023-04-15T09:33:17.675Z,1316.25
2023-04-15T09:34:17.534Z,1400.62
2023-04-15T09:35:17.488Z,1490.62
2023-04-15T09:36:17.487Z,1344.38
2023-04-15T09:37:31.507Z,1158.75
2023-04-15T09:38:18.480Z,1153.12
2023-04-15T09:39:18.342Z,1299.38
2023-04-15T09:40:17.594Z,1321.88
2023-04-15T09:41:17.563Z,1310.62
2023-04-15T09:42:17.356Z,1400.62
2023-04-15T09:43:17.460Z,1485.00
2023-04-15T09:44:17.460Z,1563.75
2023-04-15T09:45:17.404Z,1513.12
2023-04-15T09:46:18.196Z,1586.25
2023-04-15T09:47:17.382Z,2008.12
2023-04-15T09:48:17.411Z,1445.62
2023-04-15T09:49:17.286Z,1445.62
2023-04-15T09:50:17.208Z,1608.75
2023-04-15T09:51:17.617Z,2604.38
2023-04-15T09:52:17.415Z,2520.00
2023-04-15T09:53:17.237Z,2863.12
2023-04-15T09:54:17.202Z,3071.25
2023-04-15T09:55:17.224Z,2176.88
2023-04-15T09:56:17.202Z,1738.12
2023-04-15T09:57:17.146Z,2683.12
2023-04-15T09:58:17.170Z,1400.62
2023-04-15T09:59:17.339Z,1456.88
2023-04-15T10:00:17.085Z,2255.62
2023-04-15T10:01:17.165Z,2407.50
2023-04-15T10:02:17.138Z,2030.62
2023-04-15T10:03:17.188Z,1845.00
2023-04-15T10:04:17.231Z,1395.00
2023-04-15T10:05:17.078Z,2131.88
2023-04-15T10:06:17.191Z,1282.50
2023-04-15T10:07:17.098Z,1867.50
2023-04-15T10:08:17.856Z,3375.00
2023-04-15T10:09:17.408Z,3301.88
2023-04-15T10:10:17.084Z,2626.88
2023-04-15T10:11:17.027Z,1794.38
2023-04-15T10:12:17.004Z,1648.12
2023-04-15T10:13:16.926Z,1597.50
2023-04-15T10:14:16.952Z,1710.00
2023-04-15T10:15:16.880Z,1456.88
2023-04-15T10:16:17.332Z,1276.88
2023-04-15T10:17:17.045Z,1698.75
2023-04-15T10:18:17.136Z,1518.75
2023-04-15T10:19:16.809Z,1125.00
2023-04-15T10:20:16.909Z,1186.88
2023-04-15T10:21:16.934Z,1220.62
2023-04-15T10:22:16.807Z,1113.75
2023-04-15T10:23:16.937Z,990.00
2023-04-15T10:24:18.098Z,1248.75
2023-04-15T10:25:16.828Z,1929.38
2023-04-15T10:26:16.804Z,1305.00
2023-04-15T10:27:16.751Z,1400.62
2023-04-15T10:28:17.502Z,1636.88
2023-04-15T10:29:16.691Z,1378.12
2023-04-15T10:30:16.994Z,1400.62
2023-04-15T10:31:16.938Z,2986.88
2023-04-15T10:32:17.652Z,1991.25
2023-04-15T10:33:16.770Z,1620.00
2023-04-15T10:34:17.148Z,1693.12
2023-04-15T10:35:16.686Z,1665.00
2023-04-15T10:36:16.677Z,1591.88
2023-04-15T10:37:17.156Z,1681.88
2023-04-15T10:38:17.654Z,1558.12
2023-04-15T10:39:16.670Z,1338.75
2023-04-15T10:40:17.685Z,1102.50
2023-04-15T10:41:18.036Z,1029.38
2023-04-15T10:42:16.781Z,1035.00
2023-04-15T10:43:17.925Z,1057.50
2023-04-15T10:44:18.675Z,1012.50
2023-04-15T10:45:16.533Z,967.50
2023-04-15T10:46:16.938Z,950.62
2023-04-15T10:47:16.431Z,973.12
2023-04-15T10:48:16.545Z,945.00
2023-04-15T10:49:16.967Z,950.62
2023-04-15T10:50:16.656Z,765.00
2023-04-15T10:51:16.719Z,635.62
2023-04-15T10:52:16.436Z,624.38
2023-04-15T10:53:16.497Z,641.25
2023-04-15T10:54:16.719Z,697.50
2023-04-15T10:55:16.612Z,759.38
2023-04-15T10:56:17.267Z,765.00
2023-04-15T10:57:17.107Z,691.88
2023-04-15T10:58:19.020Z,624.38
2023-04-15T10:59:16.491Z,652.50
2023-04-15T11:00:16.924Z,759.38
2023-04-15T11:01:16.240Z,826.88
2023-04-15T11:02:19.656Z,860.62
2023-04-15T11:03:16.912Z,832.50
2023-04-15T11:04:17.557Z,843.75
2023-04-15T11:05:16.346Z,888.75
2023-04-15T11:06:16.244Z,1057.50
2023-04-15T11:07:16.339Z,1344.38
2023-04-15T11:08:16.662Z,1681.88
2023-04-15T11:09:16.597Z,2323.12
2023-04-15T11:10:16.370Z,1861.88
2023-04-15T11:11:16.162Z,1912.50
2023-04-15T11:12:25.991Z,1816.88
2023-04-15T11:13:17.487Z,1771.88
2023-04-15T11:14:17.349Z,1676.25
2023-04-15T11:15:16.047Z,1620.00
2023-04-15T11:16:16.581Z,1620.00
2023-04-15T11:17:16.850Z,1445.62
2023-04-15T11:18:16.064Z,1462.50
2023-04-15T11:19:48.772Z,1755.00
2023-04-15T11:20:17.039Z,1479.38
2023-04-15T11:21:16.052Z,1383.75
2023-04-15T11:22:15.943Z,1372.50
2023-04-15T11:23:16.209Z,1215.00
2023-04-15T11:24:15.933Z,1215.00
2023-04-15T11:25:16.235Z,1136.25
2023-04-15T11:26:17.340Z,1080.00
2023-04-15T11:27:15.849Z,1215.00
2023-04-15T11:28:16.400Z,1462.50
2023-04-15T11:29:15.926Z,1243.12
2023-04-15T11:30:25.250Z,1012.50
2023-04-15T11:31:15.904Z,905.62
2023-04-15T11:32:16.183Z,849.38
2023-04-15T11:33:16.077Z,855.00
2023-04-15T11:34:18.581Z,871.88
2023-04-15T11:35:17.597Z,883.12
2023-04-15T11:36:15.767Z,894.38
2023-04-15T11:38:27.631Z,849.38
2023-04-15T11:39:29.740Z,787.50
2023-04-15T11:40:27.934Z,832.50
2023-04-15T11:41:27.302Z,911.25
2023-04-15T11:42:36.210Z,888.75
2023-04-15T11:43:28.882Z,849.38
2023-04-15T11:44:27.565Z,793.12
2023-04-15T11:45:27.974Z,753.75
2023-04-15T11:46:27.464Z,804.38
2023-04-15T11:47:27.703Z,866.25
2023-04-15T11:48:27.941Z,871.88
2023-04-15T11:49:28.044Z,973.12
2023-04-15T11:50:27.512Z,1080.00
2023-04-15T11:51:27.122Z,1209.38
2023-04-15T11:52:27.119Z,1260.00
2023-04-15T11:53:27.060Z,1260.00
2023-04-15T11:54:27.069Z,1203.75
2023-04-15T11:55:28.309Z,1057.50
2023-04-15T11:56:27.022Z,939.38
2023-04-15T11:57:27.864Z,866.25
2023-04-15T11:58:27.475Z,877.50
2023-04-15T11:59:38.940Z,871.88
2023-04-15T12:00:28.708Z,973.12
2023-04-15T12:01:27.493Z,1113.75
2023-04-15T12:02:27.024Z,1125.00
2023-04-15T12:03:27.278Z,1006.88
2023-04-15T12:04:27.014Z,916.88
2023-04-15T12:05:27.813Z,894.38
2023-04-15T12:06:27.092Z,916.88
2023-04-15T12:07:29.321Z,945.00
2023-04-15T12:08:27.261Z,973.12
2023-04-15T12:09:27.862Z,1001.25
2023-04-15T12:10:28.311Z,1029.38
2023-04-15T12:11:29.334Z,1018.12
2023-04-15T12:12:27.032Z,984.38
2023-04-15T12:13:26.875Z,928.12
2023-04-15T12:14:26.892Z,911.25
2023-04-15T12:15:27.677Z,905.62
2023-04-15T12:16:26.917Z,888.75
2023-04-15T12:17:26.848Z,888.75
2023-04-15T12:18:27.230Z,916.88
2023-04-15T12:19:26.713Z,933.75
2023-04-15T12:20:27.664Z,973.12
2023-04-15T12:21:27.152Z,1040.62
2023-04-15T12:22:27.146Z,1074.38
2023-04-15T12:23:31.017Z,1119.38
2023-04-15T12:24:27.670Z,1153.12
2023-04-15T12:25:26.592Z,1175.62
2023-04-15T12:26:26.621Z,1170.00
2023-04-15T12:27:34.252Z,1113.75
2023-04-15T12:28:26.588Z,1057.50
2023-04-15T12:29:27.403Z,1051.88
2023-04-15T12:30:26.656Z,1125.00
2023-04-15T12:31:26.626Z,1141.88
2023-04-15T12:32:26.538Z,1113.75
2023-04-15T12:33:27.483Z,984.38
2023-04-15T12:34:27.451Z,916.88
2023-04-15T12:35:26.528Z,916.88
2023-04-15T12:36:27.715Z,922.50
2023-04-15T12:37:27.909Z,888.75
2023-04-15T12:38:27.269Z,838.12
2023-04-15T12:39:28.590Z,765.00
2023-04-15T12:40:26.770Z,742.50
2023-04-15T12:41:26.386Z,731.25
2023-04-15T12:42:26.423Z,742.50
2023-04-15T12:43:26.704Z,787.50
2023-04-15T12:44:26.358Z,849.38
2023-04-15T12:45:27.877Z,888.75